Cutuno, Kentucky
Current Conditions -  °F | °C
As of 10:53 PM on Friday 28 Nov 2014 (Local Time) from KJKL Reporting Station
Clear Clear  
Wind Chill: 26°   Ceiling: Unl
Heat Index: 31°   Visibility: 10mi
Dew Point: 17°   Wind: 5mph
Humidity: 57%   Direction: 210°SSW
Pressure: 30.11"   Gusts: NA
Location:  37.7261°N, 83.0786°W
Report Text: KJKL 290353Z AUTO 21004KT 10SM CLR M01/M08 A3011 RMK AO2 SLP209 T10061083
Loading
Personal Weather Stations






























Interactive Weather Map New forecast layout! Learn more

10-Day Weather Forecast

Advertisements
Track Severe Weather on mobile